Time;durP1;ratioP1;P1;durP2;ratioP2;P2;SDS_P1;SDS_P2;PMS_P1;PMS_P2;Temp;Humidity;BMP_temperature;BMP_pressure;BME280_temperature;BME280_humidity;BME280_pressure;Samples;Min_cycle;Max_cycle;Signal;HPM_P1;HPM_P2
2023/08/21 00:00:13;;;;;;;8.27;6.55;;;;;;;;;;5090015;28;20232;-68
2023/08/21 00:02:39;;;;;;;8.07;6.30;;;;;;;;;;5084488;28;20223;-71
2023/08/21 00:05:06;;;;;;;8.75;6.43;;;;;;;;;;5089871;28;20572;-70
2023/08/21 00:07:33;;;;;;;8.27;6.82;;;;;;;;;;5089858;28;20239;-70
2023/08/21 00:09:59;;;;;;;8.23;6.88;;;;;;;;;;5089342;28;20208;-70
2023/08/21 00:12:25;;;;;;;8.77;6.53;;;;;;;;;;5089063;28;20223;-72
2023/08/21 00:14:52;;;;;;;9.57;7.28;;;;;;;;;;5082574;28;20212;-71
2023/08/21 00:17:18;;;;;;;8.07;6.75;;;;;;;;;;5071912;28;20200;-70
2023/08/21 00:19:44;;;;;;;10.60;6.35;;;;;;;;;;5089955;28;20288;-70
2023/08/21 00:22:10;;;;;;;9.43;6.82;;;;;;;;;;5089513;28;20221;-70
2023/08/21 00:24:37;;;;;;;8.30;7.00;;;;;;;;;;5077651;28;20588;-70
2023/08/21 00:27:03;;;;;;;9.20;7.05;;;;;;;;;;5089648;28;20221;-72
2023/08/21 00:29:29;;;;;;;10.73;8.10;;;;;;;;;;5089805;28;20201;-71
2023/08/21 00:31:56;;;;;;;10.00;7.68;;;;;;;;;;5089561;28;20221;-71
2023/08/21 00:34:22;;;;;;;9.50;7.43;;;;;;;;;;5067438;28;20208;-71
2023/08/21 00:36:49;;;;;;;10.20;7.35;;;;;;;;;;5089546;28;20197;-72
2023/08/21 00:39:15;;;;;;;10.18;6.90;;;;;;;;;;5087283;28;20204;-71
2023/08/21 00:41:42;;;;;;;8.85;7.20;;;;;;;;;;5081391;28;20224;-70
2023/08/21 00:44:08;;;;;;;8.82;7.05;;;;;;;;;;5067206;28;20300;-72
2023/08/21 00:46:34;;;;;;;11.00;7.45;;;;;;;;;;5088748;28;20198;-71
2023/08/21 00:49:02;;;;;;;11.43;7.93;;;;;;;;;;5089805;28;20656;-70
2023/08/21 00:51:28;;;;;;;9.25;7.03;;;;;;;;;;5089230;28;20225;-70
2023/08/21 00:53:55;;;;;;;13.07;7.90;;;;;;;;;;5062971;28;20215;-73
2023/08/21 00:56:21;;;;;;;11.15;8.27;;;;;;;;;;5074729;28;20193;-71
2023/08/21 00:58:47;;;;;;;11.82;8.25;;;;;;;;;;5089613;28;20678;-70
2023/08/21 01:01:15;;;;;;;10.60;7.28;;;;;;;;;;5089301;28;20218;-72
2023/08/21 01:03:42;;;;;;;11.57;8.10;;;;;;;;;;5072602;28;20242;-72
2023/08/21 01:06:09;;;;;;;12.15;8.38;;;;;;;;;;5073851;28;20197;-71
2023/08/21 01:08:41;;;;;;;11.80;8.18;;;;;;;;;;5088865;28;20262;-72
2023/08/21 01:11:16;;;;;;;11.27;9.10;;;;;;;;;;5087235;28;20214;-71
2023/08/21 01:13:59;;;;;;;12.68;8.20;;;;;;;;;;5089623;28;20229;-70
2023/08/21 01:16:25;;;;;;;14.05;8.15;;;;;;;;;;5085810;28;20208;-71
2023/08/21 01:18:54;;;;;;;12.05;8.77;;;;;;;;;;5089179;28;20201;-71
2023/08/21 01:21:20;;;;;;;9.68;8.30;;;;;;;;;;5088716;28;20225;-70
2023/08/21 01:23:47;;;;;;;11.52;7.88;;;;;;;;;;5091133;28;20217;-71
2023/08/21 01:26:13;;;;;;;13.05;8.57;;;;;;;;;;5075521;28;20203;-70
2023/08/21 01:28:39;;;;;;;11.18;8.30;;;;;;;;;;5092295;28;20575;-71
2023/08/21 01:31:11;;;;;;;10.50;8.23;;;;;;;;;;5092630;28;20218;-71
2023/08/21 01:33:42;;;;;;;13.40;8.40;;;;;;;;;;5092051;28;20661;-71
2023/08/21 01:36:08;;;;;;;13.77;8.07;;;;;;;;;;5076148;28;20578;-71
2023/08/21 01:38:35;;;;;;;10.15;8.25;;;;;;;;;;5091669;28;20201;-70
2023/08/21 01:41:02;;;;;;;10.43;8.07;;;;;;;;;;5060508;28;20484;-70
2023/08/21 01:43:28;;;;;;;10.45;7.93;;;;;;;;;;5066187;28;20210;-70
2023/08/21 01:45:55;;;;;;;13.88;8.57;;;;;;;;;;5072088;28;20206;-70
2023/08/21 01:48:21;;;;;;;11.15;8.40;;;;;;;;;;5068671;28;20301;-72
2023/08/21 01:50:47;;;;;;;9.57;8.15;;;;;;;;;;5076878;28;20197;-72
2023/08/21 01:53:13;;;;;;;11.32;8.20;;;;;;;;;;5066112;28;20214;-72
2023/08/21 01:55:40;;;;;;;12.23;8.07;;;;;;;;;;5071538;28;20678;-70
2023/08/21 01:58:06;;;;;;;13.93;8.90;;;;;;;;;;5065949;28;20202;-71
2023/08/21 02:00:32;;;;;;;10.73;8.20;;;;;;;;;;5052877;28;20289;-70
2023/08/21 02:02:59;;;;;;;10.13;7.97;;;;;;;;;;5068054;28;20603;-71
2023/08/21 02:05:25;;;;;;;10.57;7.90;;;;;;;;;;5071921;28;20212;-70
2023/08/21 02:07:51;;;;;;;12.43;8.48;;;;;;;;;;5072092;28;20275;-70
2023/08/21 02:10:18;;;;;;;8.93;7.60;;;;;;;;;;5071719;28;20296;-69
2023/08/21 02:12:44;;;;;;;10.82;8.02;;;;;;;;;;5085704;28;20225;-70
2023/08/21 02:15:11;;;;;;;11.02;8.32;;;;;;;;;;5091542;28;20209;-71
2023/08/21 02:17:37;;;;;;;10.95;8.23;;;;;;;;;;5091908;28;20198;-71
2023/08/21 02:20:04;;;;;;;13.70;7.97;;;;;;;;;;5092022;28;20197;-70
2023/08/21 02:22:30;;;;;;;9.68;8.10;;;;;;;;;;5083346;28;20724;-68
2023/08/21 02:24:56;;;;;;;13.43;8.15;;;;;;;;;;5090577;28;20296;-72
2023/08/21 02:27:23;;;;;;;10.38;7.95;;;;;;;;;;5091466;28;20275;-70
2023/08/21 02:29:49;;;;;;;10.55;8.32;;;;;;;;;;5091627;28;20198;-72
2023/08/21 02:32:15;;;;;;;10.75;8.38;;;;;;;;;;5084147;28;20218;-70
2023/08/21 02:34:42;;;;;;;13.88;8.45;;;;;;;;;;5084102;28;20204;-71
2023/08/21 02:37:08;;;;;;;10.60;8.55;;;;;;;;;;5091562;28;20206;-70
2023/08/21 02:39:34;;;;;;;9.32;8.07;;;;;;;;;;5091722;28;20206;-71
2023/08/21 02:42:00;;;;;;;11.40;8.93;;;;;;;;;;5091252;28;20233;-70
2023/08/21 02:44:27;;;;;;;11.68;8.20;;;;;;;;;;5084221;28;20640;-70
2023/08/21 02:46:53;;;;;;;13.13;8.73;;;;;;;;;;5091347;28;20280;-71
2023/08/21 02:49:19;;;;;;;9.88;8.13;;;;;;;;;;5091282;28;20668;-70
2023/08/21 02:51:46;;;;;;;13.75;8.52;;;;;;;;;;5090873;28;20223;-71
2023/08/21 02:54:12;;;;;;;12.55;8.55;;;;;;;;;;5083078;28;20619;-70
2023/08/21 02:56:38;;;;;;;13.60;8.77;;;;;;;;;;5090780;28;20202;-70
2023/08/21 02:59:04;;;;;;;12.02;9.20;;;;;;;;;;5091015;28;20209;-72
2023/08/21 03:01:31;;;;;;;10.55;8.90;;;;;;;;;;5090694;28;20221;-72
2023/08/21 03:03:57;;;;;;;12.05;8.82;;;;;;;;;;5088730;28;20197;-72
2023/08/21 03:06:23;;;;;;;11.80;8.40;;;;;;;;;;5087767;28;20201;-71
2023/08/21 03:08:50;;;;;;;11.52;9.50;;;;;;;;;;5091016;28;20256;-70
2023/08/21 03:11:16;;;;;;;11.30;9.13;;;;;;;;;;5090588;28;20730;-70
2023/08/21 03:13:42;;;;;;;15.27;9.18;;;;;;;;;;5089961;28;20547;-70
2023/08/21 03:16:09;;;;;;;12.82;9.32;;;;;;;;;;5084732;28;20201;-70
2023/08/21 03:18:53;;;;;;;12.90;8.75;;;;;;;;;;5090834;28;20205;-70
2023/08/21 03:21:22;;;;;;;12.80;9.00;;;;;;;;;;5090628;28;20225;-70
2023/08/21 03:23:56;;;;;;;11.70;8.82;;;;;;;;;;5086975;28;20205;-70
2023/08/21 03:26:22;;;;;;;11.60;9.00;;;;;;;;;;5086187;28;20284;-71
2023/08/21 03:28:49;;;;;;;12.38;9.05;;;;;;;;;;5090860;28;20304;-71
2023/08/21 03:31:15;;;;;;;11.18;8.85;;;;;;;;;;5090559;28;20213;-70
2023/08/21 03:33:42;;;;;;;13.68;9.65;;;;;;;;;;5090132;28;20241;-70
2023/08/21 03:36:08;;;;;;;10.88;9.25;;;;;;;;;;5086625;28;20193;-71
2023/08/21 03:38:34;;;;;;;17.17;9.60;;;;;;;;;;5090015;28;20202;-72
2023/08/21 03:41:01;;;;;;;14.98;9.85;;;;;;;;;;5090301;28;20712;-71
2023/08/21 03:43:27;;;;;;;14.07;9.60;;;;;;;;;;5090337;28;20209;-71
2023/08/21 03:45:54;;;;;;;12.70;10.10;;;;;;;;;;5086603;28;20398;-71
2023/08/21 03:48:20;;;;;;;12.13;9.07;;;;;;;;;;5089510;28;20217;-71
2023/08/21 03:50:46;;;;;;;15.82;10.13;;;;;;;;;;5088547;28;20199;-71
2023/08/21 03:53:13;;;;;;;11.80;9.13;;;;;;;;;;5089881;28;20202;-71
2023/08/21 03:55:39;;;;;;;15.77;10.30;;;;;;;;;;5089983;28;21075;-71
2023/08/21 03:58:05;;;;;;;12.38;9.85;;;;;;;;;;5090964;28;20197;-70
2023/08/21 04:00:32;;;;;;;13.60;10.68;;;;;;;;;;5079988;28;20276;-71
2023/08/21 04:02:58;;;;;;;11.98;10.07;;;;;;;;;;5089654;28;20232;-71
2023/08/21 04:05:24;;;;;;;13.95;9.90;;;;;;;;;;5089749;28;20266;-70
2023/08/21 04:07:50;;;;;;;17.05;10.48;;;;;;;;;;5089915;28;20223;-70
2023/08/21 04:10:17;;;;;;;16.02;10.15;;;;;;;;;;5085379;28;20253;-71
2023/08/21 04:12:43;;;;;;;13.65;9.70;;;;;;;;;;5085486;22;20226;-73
2023/08/21 04:15:09;;;;;;;13.20;10.25;;;;;;;;;;5048984;28;20264;-74
2023/08/21 04:17:37;;;;;;;15.93;11.02;;;;;;;;;;5049319;28;20208;-73
2023/08/21 04:20:03;;;;;;;15.77;10.20;;;;;;;;;;5043828;28;20243;-73
2023/08/21 04:22:29;;;;;;;12.60;9.70;;;;;;;;;;5045487;28;20226;-74
2023/08/21 04:24:56;;;;;;;13.43;9.50;;;;;;;;;;5031925;28;20302;-73
2023/08/21 04:27:23;;;;;;;16.15;10.07;;;;;;;;;;5049398;28;20685;-73
2023/08/21 04:29:49;;;;;;;12.48;10.25;;;;;;;;;;5049710;28;20207;-74
2023/08/21 04:32:15;;;;;;;14.20;10.32;;;;;;;;;;5045806;28;20219;-73
2023/08/21 04:34:42;;;;;;;14.82;11.35;;;;;;;;;;5049224;28;20201;-73
2023/08/21 04:37:08;;;;;;;14.95;11.05;;;;;;;;;;5049720;28;20199;-73
2023/08/21 04:39:36;;;;;;;15.93;10.50;;;;;;;;;;5049310;28;20210;-73
2023/08/21 04:42:02;;;;;;;12.35;10.23;;;;;;;;;;5028850;28;20219;-73
2023/08/21 04:44:30;;;;;;;13.18;9.88;;;;;;;;;;5048715;28;20203;-74
2023/08/21 04:46:56;;;;;;;13.95;10.77;;;;;;;;;;5049377;28;20207;-73
2023/08/21 04:49:22;;;;;;;13.88;10.23;;;;;;;;;;5049454;28;20227;-73
2023/08/21 04:51:48;;;;;;;14.52;11.65;;;;;;;;;;5045670;28;20219;-73
2023/08/21 04:54:15;;;;;;;14.15;9.95;;;;;;;;;;5049067;28;20199;-74
2023/08/21 04:56:41;;;;;;;16.80;10.75;;;;;;;;;;5049115;28;20199;-74
2023/08/21 04:59:07;;;;;;;13.23;10.50;;;;;;;;;;5051872;28;20207;-73
2023/08/21 05:01:34;;;;;;;14.85;10.30;;;;;;;;;;5044275;28;20741;-73
2023/08/21 05:04:00;;;;;;;13.70;9.75;;;;;;;;;;5033682;28;20209;-73
2023/08/21 05:06:26;;;;;;;15.80;10.70;;;;;;;;;;5052693;28;20633;-73
2023/08/21 05:08:53;;;;;;;16.42;11.65;;;;;;;;;;5053066;28;20310;-73
2023/08/21 05:11:19;;;;;;;15.10;11.75;;;;;;;;;;5049700;28;20201;-74
2023/08/21 05:13:45;;;;;;;13.60;11.00;;;;;;;;;;5032965;28;20198;-74
2023/08/21 05:16:12;;;;;;;14.50;11.20;;;;;;;;;;5052700;28;20199;-73
2023/08/21 05:18:38;;;;;;;22.17;11.52;;;;;;;;;;5052678;28;20235;-73
2023/08/21 05:21:04;;;;;;;15.13;10.10;;;;;;;;;;5051043;28;20202;-73
2023/08/21 05:23:30;;;;;;;16.38;11.18;;;;;;;;;;5050328;28;20201;-73
2023/08/21 05:25:57;;;;;;;20.77;11.80;;;;;;;;;;5052396;28;20675;-73
2023/08/21 05:28:23;;;;;;;12.73;10.13;;;;;;;;;;5052782;28;20215;-73
2023/08/21 05:30:49;;;;;;;16.58;10.48;;;;;;;;;;5033545;28;20203;-74
2023/08/21 05:33:16;;;;;;;15.10;10.55;;;;;;;;;;5034654;28;20301;-74
2023/08/21 05:35:42;;;;;;;17.35;10.88;;;;;;;;;;5052232;28;21165;-74
2023/08/21 05:38:08;;;;;;;15.68;9.88;;;;;;;;;;5051343;28;20203;-74
2023/08/21 05:40:35;;;;;;;16.63;10.30;;;;;;;;;;5048335;28;20203;-74
2023/08/21 05:43:01;;;;;;;14.88;10.27;;;;;;;;;;5052111;28;20226;-74
2023/08/21 05:45:27;;;;;;;20.95;10.98;;;;;;;;;;5052399;28;20226;-74
2023/08/21 05:47:54;;;;;;;19.25;10.60;;;;;;;;;;5050015;28;20211;-74
2023/08/21 05:50:21;;;;;;;22.42;11.88;;;;;;;;;;5050330;28;20639;-74
2023/08/21 05:52:47;;;;;;;20.15;11.13;;;;;;;;;;5052147;28;20226;-74
2023/08/21 05:55:13;;;;;;;22.58;11.00;;;;;;;;;;5051953;28;20198;-74
2023/08/21 05:57:40;;;;;;;17.63;10.82;;;;;;;;;;5051748;28;20207;-74
2023/08/21 06:00:09;;;;;;;20.17;10.77;;;;;;;;;;5033190;28;20207;-74
2023/08/21 06:02:35;;;;;;;18.83;10.90;;;;;;;;;;5049231;28;20746;-74
2023/08/21 06:05:03;;;;;;;20.45;10.45;;;;;;;;;;5051896;28;20230;-74
2023/08/21 06:07:29;;;;;;;15.80;9.85;;;;;;;;;;5051657;28;20198;-74
2023/08/21 06:09:55;;;;;;;15.60;9.95;;;;;;;;;;5048912;28;20229;-74
2023/08/21 06:12:21;;;;;;;20.45;11.23;;;;;;;;;;5040774;28;20227;-73
2023/08/21 06:14:48;;;;;;;16.73;10.00;;;;;;;;;;5051319;28;20197;-73
2023/08/21 06:17:14;;;;;;;13.95;10.27;;;;;;;;;;5051858;28;20195;-74
2023/08/21 06:19:40;;;;;;;15.48;9.75;;;;;;;;;;5032053;28;20200;-74
2023/08/21 06:22:07;;;;;;;17.05;9.75;;;;;;;;;;5049630;28;20419;-74
2023/08/21 06:24:34;;;;;;;15.07;9.35;;;;;;;;;;5051226;28;20559;-74
2023/08/21 06:27:00;;;;;;;17.33;9.73;;;;;;;;;;5051635;28;20206;-74
2023/08/21 06:29:27;;;;;;;15.82;10.10;;;;;;;;;;5051246;28;20607;-73
2023/08/21 06:31:53;;;;;;;18.20;11.00;;;;;;;;;;5046215;28;20218;-73
2023/08/21 06:34:19;;;;;;;16.50;9.95;;;;;;;;;;5051340;28;20198;-74
2023/08/21 06:36:45;;;;;;;15.95;10.18;;;;;;;;;;5051013;28;20191;-74
2023/08/21 06:39:11;;;;;;;13.73;9.93;;;;;;;;;;5050924;28;20199;-74
2023/08/21 06:41:38;;;;;;;15.35;10.02;;;;;;;;;;5043236;28;20223;-74
2023/08/21 06:44:04;;;;;;;14.90;10.05;;;;;;;;;;5049185;28;20202;-74
2023/08/21 06:46:30;;;;;;;14.38;9.40;;;;;;;;;;5051764;28;20204;-74
2023/08/21 06:48:57;;;;;;;17.42;9.95;;;;;;;;;;5033229;28;20244;-74
2023/08/21 06:51:23;;;;;;;13.07;9.60;;;;;;;;;;5046784;28;20206;-74
2023/08/21 06:53:50;;;;;;;13.88;9.50;;;;;;;;;;5023935;28;20199;-74
2023/08/21 06:56:16;;;;;;;13.95;9.55;;;;;;;;;;5051267;28;20205;-74
2023/08/21 06:58:42;;;;;;;14.77;9.85;;;;;;;;;;5050900;28;20217;-74
2023/08/21 07:01:09;;;;;;;16.33;9.88;;;;;;;;;;5051073;28;20289;-74
2023/08/21 07:03:35;;;;;;;14.35;9.15;;;;;;;;;;5045523;28;20199;-74
2023/08/21 07:06:02;;;;;;;15.35;9.95;;;;;;;;;;5050506;28;20207;-74
2023/08/21 07:08:29;;;;;;;20.15;9.75;;;;;;;;;;5050547;28;20596;-74
2023/08/21 07:10:55;;;;;;;13.57;9.27;;;;;;;;;;5050895;28;20203;-74
2023/08/21 07:13:21;;;;;;;13.48;8.27;;;;;;;;;;5040155;28;20310;-74
2023/08/21 07:15:48;;;;;;;15.48;9.15;;;;;;;;;;5031786;28;20207;-74
2023/08/21 07:18:14;;;;;;;14.43;9.32;;;;;;;;;;5049372;28;20199;-74
2023/08/21 07:20:41;;;;;;;18.30;9.43;;;;;;;;;;5049516;28;20199;-74
2023/08/21 07:23:07;;;;;;;13.23;8.38;;;;;;;;;;5030912;28;20419;-74
2023/08/21 07:25:33;;;;;;;14.85;8.38;;;;;;;;;;5042143;28;20203;-74
2023/08/21 07:27:59;;;;;;;13.20;8.10;;;;;;;;;;5050329;28;20205;-74
2023/08/21 07:30:26;;;;;;;11.68;8.13;;;;;;;;;;5050033;28;20268;-74
2023/08/21 07:32:53;;;;;;;15.40;8.65;;;;;;;;;;5039588;28;20219;-74
2023/08/21 07:35:20;;;;;;;15.80;9.13;;;;;;;;;;5041354;28;20684;-74
2023/08/21 07:37:46;;;;;;;13.95;7.97;;;;;;;;;;5049334;28;20203;-74
2023/08/21 07:40:13;;;;;;;18.23;9.63;;;;;;;;;;5050096;28;20202;-74
2023/08/21 07:42:39;;;;;;;14.38;8.73;;;;;;;;;;5049324;28;20706;-74
2023/08/21 07:45:06;;;;;;;16.38;9.65;;;;;;;;;;5044588;28;20203;-74
2023/08/21 07:47:32;;;;;;;18.27;9.07;;;;;;;;;;5049617;28;20207;-74
2023/08/21 07:50:02;;;;;;;17.38;9.18;;;;;;;;;;5049562;28;20230;-74
2023/08/21 07:52:29;;;;;;;12.52;8.60;;;;;;;;;;5049096;28;20739;-74
2023/08/21 07:54:55;;;;;;;14.63;8.73;;;;;;;;;;5044622;28;20209;-74
2023/08/21 07:57:21;;;;;;;16.67;8.65;;;;;;;;;;5049512;28;20721;-74
2023/08/21 07:59:47;;;;;;;13.02;8.32;;;;;;;;;;5049380;28;20217;-74
2023/08/21 08:02:14;;;;;;;16.33;9.15;;;;;;;;;;5049469;28;20223;-75
2023/08/21 08:04:43;;;;;;;13.70;9.77;;;;;;;;;;5044153;28;20214;-74
2023/08/21 08:07:09;;;;;;;16.75;9.65;;;;;;;;;;5049068;28;20203;-75
2023/08/21 08:09:36;;;;;;;13.57;8.65;;;;;;;;;;5049428;28;20223;-75
2023/08/21 08:12:02;;;;;;;15.20;8.57;;;;;;;;;;5049024;28;20232;-75
2023/08/21 08:14:28;;;;;;;17.20;9.02;;;;;;;;;;5042391;28;20203;-74
2023/08/21 08:16:55;;;;;;;20.17;8.98;;;;;;;;;;5046517;28;20234;-75
2023/08/21 08:19:21;;;;;;;13.23;9.00;;;;;;;;;;5049591;28;20198;-74
2023/08/21 08:21:47;;;;;;;15.15;9.25;;;;;;;;;;5049515;28;21497;-75
2023/08/21 08:24:13;;;;;;;16.80;9.88;;;;;;;;;;5046582;28;20218;-74
2023/08/21 08:26:41;;;;;;;15.80;9.18;;;;;;;;;;5045201;28;20583;-75
2023/08/21 08:29:07;;;;;;;14.50;9.70;;;;;;;;;;5049361;28;20224;-74
2023/08/21 08:31:34;;;;;;;15.32;9.20;;;;;;;;;;5048960;28;20223;-74
2023/08/21 08:34:00;;;;;;;16.10;8.50;;;;;;;;;;5052692;28;20716;-74
2023/08/21 08:36:26;;;;;;;15.32;8.95;;;;;;;;;;5051163;28;20205;-75
2023/08/21 08:38:53;;;;;;;14.18;8.30;;;;;;;;;;5052989;28;20584;-75
2023/08/21 08:41:21;;;;;;;17.00;9.55;;;;;;;;;;5053261;28;20253;-75
2023/08/21 08:43:47;;;;;;;14.95;8.35;;;;;;;;;;5035181;28;20582;-75
2023/08/21 08:46:14;;;;;;;12.10;9.30;;;;;;;;;;5048036;28;20202;-75
2023/08/21 08:48:40;;;;;;;16.48;8.30;;;;;;;;;;5048895;28;20214;-75
2023/08/21 08:51:06;;;;;;;15.35;8.23;;;;;;;;;;5053130;28;20203;-75
2023/08/21 08:53:33;;;;;;;11.00;8.57;;;;;;;;;;5051150;28;20205;-75
2023/08/21 08:56:00;;;;;;;10.38;7.93;;;;;;;;;;5052770;28;20203;-75
2023/08/21 08:58:26;;;;;;;15.18;7.68;;;;;;;;;;5052969;28;20272;-75
2023/08/21 09:00:52;;;;;;;11.38;7.60;;;;;;;;;;5052615;28;20265;-75
2023/08/21 09:03:19;;;;;;;13.00;8.05;;;;;;;;;;5047898;28;20317;-75
2023/08/21 09:05:45;;;;;;;9.05;7.70;;;;;;;;;;5052910;28;20245;-75
2023/08/21 09:08:12;;;;;;;16.90;7.65;;;;;;;;;;5053518;28;20213;-76
2023/08/21 09:10:40;;;;;;;9.80;7.80;;;;;;;;;;5052566;28;20355;-76
2023/08/21 09:13:16;;;;;;;9.13;7.60;;;;;;;;;;5045012;28;20219;-76
2023/08/21 09:15:43;;;;;;;9.02;6.35;;;;;;;;;;5052853;28;20306;-75
2023/08/21 09:18:10;;;;;;;9.48;6.65;;;;;;;;;;5053143;28;20346;-76
2023/08/21 09:20:37;;;;;;;10.52;6.72;;;;;;;;;;5035152;28;20199;-76
2023/08/21 09:23:06;;;;;;;11.55;7.30;;;;;;;;;;5044285;28;20224;-75
2023/08/21 09:25:33;;;;;;;14.02;7.20;;;;;;;;;;5052571;28;20261;-75
2023/08/21 09:28:00;;;;;;;8.35;6.32;;;;;;;;;;5052347;28;20456;-75
2023/08/21 09:30:26;;;;;;;11.23;7.10;;;;;;;;;;5047900;28;20700;-76
2023/08/21 09:32:53;;;;;;;9.50;6.78;;;;;;;;;;5051978;28;20305;-75
2023/08/21 09:35:19;;;;;;;10.43;7.25;;;;;;;;;;5050882;28;20210;-76
2023/08/21 09:37:46;;;;;;;8.90;6.20;;;;;;;;;;5052070;28;20663;-75
2023/08/21 09:40:12;;;;;;;7.20;6.22;;;;;;;;;;5052068;28;20198;-75
2023/08/21 09:42:39;;;;;;;9.93;6.57;;;;;;;;;;5048656;28;20251;-75
2023/08/21 09:45:06;;;;;;;7.28;6.22;;;;;;;;;;5049785;28;20205;-76
2023/08/21 09:47:33;;;;;;;10.32;7.22;;;;;;;;;;5051767;28;20199;-76
2023/08/21 09:50:00;;;;;;;10.13;6.82;;;;;;;;;;5051918;28;20249;-76
2023/08/21 09:52:26;;;;;;;9.98;7.10;;;;;;;;;;5051888;28;20211;-76
2023/08/21 09:54:56;;;;;;;11.15;7.15;;;;;;;;;;5044551;28;20694;-76
2023/08/21 09:57:23;;;;;;;10.23;7.90;;;;;;;;;;5047329;28;20664;-76
2023/08/21 09:59:52;;;;;;;12.95;7.70;;;;;;;;;;5033940;28;20199;-76
2023/08/21 10:02:20;;;;;;;12.30;7.50;;;;;;;;;;5051630;28;20226;-77
2023/08/21 10:04:48;;;;;;;10.27;6.13;;;;;;;;;;5048042;28;20198;-76
2023/08/21 10:07:16;;;;;;;9.32;7.65;;;;;;;;;;5031036;28;20203;-76
2023/08/21 10:09:42;;;;;;;11.82;7.82;;;;;;;;;;5051052;28;20555;-76
2023/08/21 10:12:09;;;;;;;12.45;7.60;;;;;;;;;;5051748;28;20261;-75
2023/08/21 10:14:36;;;;;;;13.77;7.40;;;;;;;;;;5046699;28;20195;-76
2023/08/21 10:17:02;;;;;;;8.20;6.93;;;;;;;;;;5044169;28;20209;-76
2023/08/21 10:19:32;;;;;;;9.98;7.40;;;;;;;;;;5051444;28;20217;-76
2023/08/21 10:21:59;;;;;;;9.38;7.03;;;;;;;;;;5042736;28;20619;-76
2023/08/21 10:24:38;;;;;;;12.05;7.47;;;;;;;;;;5051307;28;20202;-76
2023/08/21 10:27:08;;;;;;;10.60;7.32;;;;;;;;;;5042337;28;20202;-76
2023/08/21 10:29:35;;;;;;;9.50;6.65;;;;;;;;;;5033145;28;20215;-76
2023/08/21 10:32:02;;;;;;;9.98;7.07;;;;;;;;;;5048994;28;20223;-76
2023/08/21 10:34:33;;;;;;;9.43;6.63;;;;;;;;;;5050651;28;20195;-76
2023/08/21 10:37:04;;;;;;;11.68;7.45;;;;;;;;;;5051217;28;20203;-76
2023/08/21 10:39:35;;;;;;;8.38;6.90;;;;;;;;;;5050961;28;20209;-77
2023/08/21 10:42:09;;;;;;;8.95;6.63;;;;;;;;;;5045985;28;20597;-76
2023/08/21 10:44:36;;;;;;;13.45;6.53;;;;;;;;;;5033063;28;20198;-76
2023/08/21 10:47:21;;;;;;;10.88;6.70;;;;;;;;;;5050930;28;20210;-76
2023/08/21 10:49:49;;;;;;;10.73;7.10;;;;;;;;;;5046429;28;20211;-76
2023/08/21 10:52:21;;;;;;;12.10;6.72;;;;;;;;;;5045916;28;20714;-77
2023/08/21 10:54:48;;;;;;;7.97;6.20;;;;;;;;;;5048877;28;20198;-76
2023/08/21 10:57:15;;;;;;;8.20;6.15;;;;;;;;;;5050853;28;20198;-76
2023/08/21 10:59:58;;;;;;;8.02;6.00;;;;;;;;;;5050360;28;20554;-77
2023/08/21 11:02:26;;;;;;;7.05;5.50;;;;;;;;;;5043550;28;20691;-76
2023/08/21 11:04:52;;;;;;;11.27;6.20;;;;;;;;;;5050138;28;20206;-76
2023/08/21 11:07:19;;;;;;;7.47;5.88;;;;;;;;;;5050796;28;20199;-76
2023/08/21 11:09:45;;;;;;;8.40;5.65;;;;;;;;;;5050205;28;20292;-76
2023/08/21 11:12:13;;;;;;;5.28;4.78;;;;;;;;;;5048924;28;20221;-76
2023/08/21 11:14:39;;;;;;;6.75;5.35;;;;;;;;;;5045034;28;20278;-76
2023/08/21 11:17:05;;;;;;;9.38;5.72;;;;;;;;;;5050561;28;20202;-76
2023/08/21 11:19:32;;;;;;;6.75;5.32;;;;;;;;;;5050250;28;20571;-76
2023/08/21 11:22:06;;;;;;;5.35;4.85;;;;;;;;;;5038302;28;20219;-75
2023/08/21 11:24:43;;;;;;;10.10;5.60;;;;;;;;;;5044343;28;20222;-76
2023/08/21 11:27:16;;;;;;;5.55;4.72;;;;;;;;;;5043393;28;20655;-76
2023/08/21 11:29:44;;;;;;;6.70;4.07;;;;;;;;;;5049867;28;20218;-76
2023/08/21 11:32:18;;;;;;;6.55;4.15;;;;;;;;;;5049409;28;20225;-76
2023/08/21 11:34:48;;;;;;;4.65;4.25;;;;;;;;;;5030302;28;20191;-76
2023/08/21 11:37:16;;;;;;;7.30;4.18;;;;;;;;;;5049577;28;20210;-76
2023/08/21 11:39:43;;;;;;;5.90;4.53;;;;;;;;;;5049888;28;20199;-76
2023/08/21 11:42:11;;;;;;;5.40;4.18;;;;;;;;;;5049362;28;20572;-78
2023/08/21 11:44:48;;;;;;;7.22;3.88;;;;;;;;;;5043607;28;20198;-75
2023/08/21 11:47:16;;;;;;;5.53;3.95;;;;;;;;;;5032302;28;20285;-77
2023/08/21 11:49:43;;;;;;;3.75;3.40;;;;;;;;;;5049429;28;20248;-76
2023/08/21 11:52:11;;;;;;;3.92;3.50;;;;;;;;;;5049681;28;20237;-77
2023/08/21 11:54:40;;;;;;;4.70;3.65;;;;;;;;;;5030721;28;20226;-77
2023/08/21 11:57:13;;;;;;;4.93;4.30;;;;;;;;;;5049070;28;20642;-76
2023/08/21 11:59:39;;;;;;;6.28;4.57;;;;;;;;;;5049810;28;20190;-76
2023/08/21 12:02:21;;;;;;;4.93;4.13;;;;;;;;;;5049429;28;20226;-76
2023/08/21 12:04:54;;;;;;;5.35;4.85;;;;;;;;;;5047641;28;20215;-76
2023/08/21 12:07:21;;;;;;;6.03;4.32;;;;;;;;;;5047072;28;20226;-76
2023/08/21 12:09:48;;;;;;;7.00;4.43;;;;;;;;;;5049400;28;20593;-76
2023/08/21 12:12:15;;;;;;;8.23;4.57;;;;;;;;;;5049111;28;20225;-76
2023/08/21 12:14:41;;;;;;;7.72;4.68;;;;;;;;;;5030312;28;20685;-77
2023/08/21 12:17:08;;;;;;;5.25;4.75;;;;;;;;;;5047111;28;20198;-76
2023/08/21 12:19:34;;;;;;;6.57;4.35;;;;;;;;;;5049399;28;20202;-77
2023/08/21 12:22:00;;;;;;;5.78;4.13;;;;;;;;;;5049071;28;20600;-77
2023/08/21 12:24:27;;;;;;;7.80;4.20;;;;;;;;;;5049075;28;20202;-75
2023/08/21 12:26:53;;;;;;;5.70;4.40;;;;;;;;;;5036657;28;20219;-74
2023/08/21 12:29:19;;;;;;;5.38;3.80;;;;;;;;;;5048967;28;20588;-75
2023/08/21 12:31:46;;;;;;;4.22;3.70;;;;;;;;;;5048843;28;20229;-74
2023/08/21 12:34:13;;;;;;;5.05;3.53;;;;;;;;;;5043758;28;20191;-74
2023/08/21 12:36:39;;;;;;;6.70;3.50;;;;;;;;;;5043207;28;20763;-75
2023/08/21 12:39:06;;;;;;;6.25;3.22;;;;;;;;;;5049194;28;20195;-75
2023/08/21 12:41:33;;;;;;;3.60;3.17;;;;;;;;;;5049382;28;20223;-74
2023/08/21 12:43:59;;;;;;;3.72;2.80;;;;;;;;;;5048827;28;20277;-75
2023/08/21 12:46:27;;;;;;;3.42;3.03;;;;;;;;;;5045088;28;20237;-74
2023/08/21 12:48:53;;;;;;;4.65;3.22;;;;;;;;;;5042103;28;20284;-75
2023/08/21 12:51:20;;;;;;;5.72;3.10;;;;;;;;;;5048958;28;20215;-74
2023/08/21 12:53:46;;;;;;;4.80;2.80;;;;;;;;;;5048749;28;20199;-75
2023/08/21 12:56:12;;;;;;;4.72;2.63;;;;;;;;;;5044641;28;20195;-75
2023/08/21 12:58:39;;;;;;;2.60;2.40;;;;;;;;;;5046956;28;20209;-75
2023/08/21 13:01:05;;;;;;;3.22;2.60;;;;;;;;;;5048949;28;20658;-75
2023/08/21 13:03:33;;;;;;;2.97;2.53;;;;;;;;;;5049359;28;20198;-74
2023/08/21 13:05:59;;;;;;;3.83;2.63;;;;;;;;;;5027607;28;20206;-75
2023/08/21 13:08:26;;;;;;;5.55;2.95;;;;;;;;;;5042601;28;20205;-75
2023/08/21 13:10:53;;;;;;;5.40;2.60;;;;;;;;;;5048565;28;20509;-74
2023/08/21 13:13:19;;;;;;;3.70;2.53;;;;;;;;;;5048739;28;20756;-75
2023/08/21 13:15:46;;;;;;;3.53;2.60;;;;;;;;;;5048911;28;20198;-75
2023/08/21 13:18:14;;;;;;;3.72;2.42;;;;;;;;;;5042410;28;20659;-75
2023/08/21 13:20:41;;;;;;;3.53;2.60;;;;;;;;;;5051671;28;20198;-75
2023/08/21 13:23:08;;;;;;;3.40;2.42;;;;;;;;;;5052455;28;20245;-75
2023/08/21 13:25:34;;;;;;;3.03;2.33;;;;;;;;;;5052363;28;20670;-75
2023/08/21 13:28:01;;;;;;;3.72;2.55;;;;;;;;;;5045079;28;20203;-75
2023/08/21 13:30:27;;;;;;;10.82;2.72;;;;;;;;;;5050750;28;20229;-75
2023/08/21 13:32:54;;;;;;;3.35;2.67;;;;;;;;;;5051896;28;20219;-74
2023/08/21 13:35:22;;;;;;;3.45;2.47;;;;;;;;;;5052164;28;20198;-75
2023/08/21 13:37:49;;;;;;;2.42;2.22;;;;;;;;;;5052456;28;20681;-75
2023/08/21 13:40:16;;;;;;;2.70;2.50;;;;;;;;;;5043960;28;20194;-75
2023/08/21 13:42:47;;;;;;;2.67;2.35;;;;;;;;;;5051635;28;20314;-75
2023/08/21 13:45:14;;;;;;;4.20;2.70;;;;;;;;;;5051788;28;20203;-75
2023/08/21 13:47:41;;;;;;;4.78;2.72;;;;;;;;;;5051895;28;20749;-75
2023/08/21 13:50:09;;;;;;;3.22;2.60;;;;;;;;;;5043143;28;20310;-75
2023/08/21 13:52:35;;;;;;;5.28;2.85;;;;;;;;;;5047588;28;20210;-75
2023/08/21 13:55:02;;;;;;;2.97;2.50;;;;;;;;;;5051785;28;20209;-75
2023/08/21 13:57:29;;;;;;;3.35;2.70;;;;;;;;;;5052046;28;20281;-75
2023/08/21 13:59:55;;;;;;;3.70;2.83;;;;;;;;;;5049723;28;20203;-75
2023/08/21 14:02:22;;;;;;;4.22;2.58;;;;;;;;;;5028475;28;20226;-75
2023/08/21 14:04:49;;;;;;;2.92;2.45;;;;;;;;;;5051406;28;20195;-75
2023/08/21 14:07:16;;;;;;;4.90;2.55;;;;;;;;;;5051709;28;20587;-75
2023/08/21 14:09:42;;;;;;;3.75;2.50;;;;;;;;;;5050723;28;20199;-75
2023/08/21 14:12:09;;;;;;;3.10;2.42;;;;;;;;;;5043613;28;20218;-74
2023/08/21 14:14:35;;;;;;;4.65;2.38;;;;;;;;;;5051714;28;20655;-74
2023/08/21 14:17:03;;;;;;;4.32;2.30;;;;;;;;;;5051667;28;20195;-75
2023/08/21 14:19:30;;;;;;;4.05;2.80;;;;;;;;;;5049982;28;20248;-75
2023/08/21 14:21:57;;;;;;;4.45;2.30;;;;;;;;;;5048772;28;20472;-74
2023/08/21 14:24:24;;;;;;;3.60;2.60;;;;;;;;;;5051167;28;20203;-74
2023/08/21 14:26:50;;;;;;;3.55;2.25;;;;;;;;;;5051470;28;20211;-74
2023/08/21 14:29:18;;;;;;;2.80;2.50;;;;;;;;;;5050562;28;20203;-75
2023/08/21 14:31:46;;;;;;;3.13;2.20;;;;;;;;;;5045590;28;20546;-74